Time;durP1;ratioP1;P1;durP2;ratioP2;P2;SDS_P1;SDS_P2;PMS_P1;PMS_P2;Temp;Humidity;BMP_temperature;BMP_pressure;BME280_temperature;BME280_humidity;BME280_pressure;Samples;Min_cycle;Max_cycle;Signal;HPM_P1;HPM_P2
2024/03/08 00:00:15;;;;;;;5.07;1.77;;;;;;;-140.81;100.00;62400.31;5024197;28;20059;-52
2024/03/08 00:02:41;;;;;;;4.97;2.35;;;;;;;-140.81;100.00;62400.31;5026151;28;20041;-50
2024/03/08 00:05:08;;;;;;;7.03;2.13;;;;;;;-140.81;100.00;62400.31;5024155;28;20464;-49
2024/03/08 00:07:35;;;;;;;4.95;2.20;;;;;;;-140.81;100.00;62400.31;5024284;28;20049;-54
2024/03/08 00:10:05;;;;;;;4.60;2.38;;;;;;;-140.81;100.00;62400.31;5043602;28;20159;-48
2024/03/08 00:12:32;;;;;;;3.67;1.73;;;;;;;-140.81;100.00;62400.31;5041075;28;20091;-56
2024/03/08 00:14:58;;;;;;;5.72;2.15;;;;;;;-140.81;100.00;62400.31;5028012;28;20037;-53
2024/03/08 00:17:27;;;;;;;3.75;2.08;;;;;;;-140.81;100.00;62400.31;5024803;28;20046;-54
2024/03/08 00:19:53;;;;;;;4.37;2.30;;;;;;;-140.81;100.00;62400.31;5010653;28;20045;-54
2024/03/08 00:22:19;;;;;;;5.70;2.13;;;;;;;-140.81;100.00;62400.31;5028489;28;20349;-56
2024/03/08 00:24:45;;;;;;;3.85;1.83;;;;;;;-140.81;100.00;62400.31;5022500;28;20076;-52
2024/03/08 00:27:11;;;;;;;3.67;2.00;;;;;;;-140.81;100.00;62400.31;5021412;28;20141;-51
2024/03/08 00:29:38;;;;;;;3.30;1.83;;;;;;;-140.81;100.00;62400.31;5027326;28;20115;-52
2024/03/08 00:32:05;;;;;;;4.63;2.38;;;;;;;-140.81;100.00;62400.31;5028233;28;20038;-53
2024/03/08 00:34:31;;;;;;;7.75;2.30;;;;;;;-140.81;100.00;62400.31;5029780;28;20056;-55
2024/03/08 00:36:58;;;;;;;6.35;2.40;;;;;;;-140.81;100.00;62400.31;5027631;28;20083;-53
2024/03/08 00:39:25;;;;;;;3.90;2.05;;;;;;;-140.81;100.00;62400.31;5021709;28;20428;-49
2024/03/08 00:41:51;;;;;;;5.47;2.10;;;;;;;-140.81;100.00;62400.31;5028551;28;20041;-54
2024/03/08 00:44:17;;;;;;;4.25;1.67;;;;;;;-140.81;100.00;62400.31;5058922;28;20037;-53
2024/03/08 00:46:43;;;;;;;3.67;1.80;;;;;;;-140.81;100.00;62400.31;5060674;28;20052;-54
2024/03/08 00:49:09;;;;;;;3.95;1.77;;;;;;;-140.81;100.00;62400.31;5029130;28;20045;-54
2024/03/08 00:51:36;;;;;;;3.78;1.80;;;;;;;-140.81;100.00;62400.31;5028632;28;20067;-56
2024/03/08 00:54:02;;;;;;;4.05;1.65;;;;;;;-140.81;100.00;62400.31;5043955;28;20042;-53
2024/03/08 00:56:28;;;;;;;2.80;1.38;;;;;;;-140.81;100.00;62400.31;5028828;28;20505;-54
2024/03/08 00:58:54;;;;;;;3.25;2.05;;;;;;;-140.81;100.00;62400.31;5027183;28;20048;-58
2024/03/08 01:01:20;;;;;;;3.70;1.60;;;;;;;-140.81;100.00;62400.31;5029269;28;20041;-56
2024/03/08 01:03:46;;;;;;;5.22;2.05;;;;;;;-140.81;100.00;62400.31;5027739;28;20328;-54
2024/03/08 01:06:12;;;;;;;2.78;1.60;;;;;;;-140.81;100.00;62400.31;5028246;28;20045;-54
2024/03/08 01:08:40;;;;;;;4.32;2.17;;;;;;;-140.81;100.00;62400.31;5028418;28;20104;-55
2024/03/08 01:11:06;;;;;;;3.70;2.20;;;;;;;-140.81;100.00;62400.31;5027670;28;20391;-55
2024/03/08 01:13:32;;;;;;;3.13;1.75;;;;;;;-140.81;100.00;62400.31;5027710;28;20044;-53
2024/03/08 01:16:00;;;;;;;2.58;1.50;;;;;;;-140.81;100.00;62400.31;5025125;28;20421;-54
2024/03/08 01:18:27;;;;;;;3.42;1.60;;;;;;;-140.81;100.00;62400.31;5027039;28;20341;-56
2024/03/08 01:20:52;;;;;;;10.52;2.15;;;;;;;-140.81;100.00;62400.31;5027648;28;20536;-53
2024/03/08 01:23:18;;;;;;;3.38;1.65;;;;;;;-140.81;100.00;62400.31;5010869;28;20033;-53
2024/03/08 01:25:44;;;;;;;3.65;1.85;;;;;;;-140.81;100.00;62400.31;5027480;28;20048;-56
2024/03/08 01:28:11;;;;;;;5.53;2.03;;;;;;;-140.81;100.00;62400.31;5027177;28;20533;-55
2024/03/08 01:30:39;;;;;;;3.95;1.80;;;;;;;-140.81;100.00;62400.31;5027169;28;20057;-55
2024/03/08 01:33:05;;;;;;;5.68;1.98;;;;;;;-140.81;100.00;62400.31;5027367;28;20040;-55
2024/03/08 01:35:31;;;;;;;3.78;1.60;;;;;;;-140.81;100.00;62400.31;5028557;28;20052;-52
2024/03/08 01:37:58;;;;;;;4.53;1.90;;;;;;;-140.81;100.00;62400.31;5010197;28;20144;-55
2024/03/08 01:40:24;;;;;;;3.17;1.65;;;;;;;-140.81;100.00;62400.31;5028076;28;20053;-54
2024/03/08 01:42:50;;;;;;;4.95;1.88;;;;;;;-140.81;100.00;62400.31;5027909;28;20045;-54
2024/03/08 01:45:16;;;;;;;2.63;1.67;;;;;;;-140.81;100.00;62400.31;5027371;28;20052;-53
2024/03/08 01:47:42;;;;;;;3.55;1.55;;;;;;;-140.81;100.00;62400.31;5026252;28;20063;-51
2024/03/08 01:50:08;;;;;;;4.30;1.52;;;;;;;-140.81;100.00;62400.31;5027398;28;20038;-52
2024/03/08 01:52:36;;;;;;;3.55;1.63;;;;;;;-140.81;100.00;62400.31;5026833;28;20080;-56
2024/03/08 01:55:07;;;;;;;2.58;1.73;;;;;;;-140.81;100.00;62400.31;5058884;28;20041;-53
2024/03/08 01:57:38;;;;;;;3.20;1.88;;;;;;;-140.81;100.00;62400.31;5059125;28;20798;-52
2024/03/08 02:00:04;;;;;;;3.88;1.63;;;;;;;-140.81;100.00;62400.31;5025550;28;20117;-52
2024/03/08 02:02:32;;;;;;;2.72;1.65;;;;;;;-140.81;100.00;62400.31;5028186;28;20119;-53
2024/03/08 02:05:00;;;;;;;5.03;1.90;;;;;;;-140.81;100.00;62400.31;5027883;28;20049;-50
2024/03/08 02:07:26;;;;;;;5.88;2.03;;;;;;;-140.81;100.00;62400.31;5026588;28;20251;-50
2024/03/08 02:09:52;;;;;;;7.38;2.17;;;;;;;-140.81;100.00;62400.31;5026645;28;20050;-49
2024/03/08 02:12:20;;;;;;;3.80;1.88;;;;;;;-140.81;100.00;62400.31;5026543;28;20038;-53
2024/03/08 02:14:47;;;;;;;5.00;1.88;;;;;;;-140.81;100.00;62400.31;5027285;28;20123;-55
2024/03/08 02:17:13;;;;;;;5.25;2.20;;;;;;;-140.81;100.00;62400.31;5016521;28;20120;-52
2024/03/08 02:19:39;;;;;;;5.18;2.25;;;;;;;-140.81;100.00;62400.31;5008440;28;20119;-49
2024/03/08 02:22:06;;;;;;;4.22;1.90;;;;;;;-140.81;100.00;62400.31;5027296;28;20041;-51
2024/03/08 02:24:35;;;;;;;5.60;2.03;;;;;;;-140.81;100.00;62400.31;5027101;28;20045;-53
2024/03/08 02:27:01;;;;;;;4.75;2.00;;;;;;;-140.81;100.00;62400.31;5027191;28;20044;-53
2024/03/08 02:29:29;;;;;;;4.80;2.30;;;;;;;-140.81;100.00;62400.31;5025134;28;20037;-55
2024/03/08 02:31:55;;;;;;;5.25;2.28;;;;;;;-140.81;100.00;62400.31;5058003;28;20041;-52
2024/03/08 02:34:24;;;;;;;4.80;1.92;;;;;;;-140.81;100.00;62400.31;5026535;28;20041;-52
2024/03/08 02:36:50;;;;;;;3.55;1.90;;;;;;;-140.81;100.00;62400.31;5025189;28;20047;-52
2024/03/08 02:39:16;;;;;;;3.55;1.70;;;;;;;-140.81;100.00;62400.31;5057175;28;20037;-53
2024/03/08 02:41:42;;;;;;;5.00;2.20;;;;;;;-140.81;100.00;62400.31;5024950;28;20048;-54
2024/03/08 02:44:08;;;;;;;4.40;2.20;;;;;;;-140.81;100.00;62400.31;5026890;28;20033;-49
2024/03/08 02:46:35;;;;;;;6.20;1.98;;;;;;;-140.81;100.00;62400.31;5026465;28;20041;-54
2024/03/08 02:49:02;;;;;;;4.40;2.20;;;;;;;-140.81;100.00;62400.31;5041700;28;20504;-52
2024/03/08 02:51:29;;;;;;;6.40;2.35;;;;;;;-140.81;100.00;62400.31;5007446;28;20047;-51
2024/03/08 02:53:55;;;;;;;7.38;2.15;;;;;;;-140.81;100.00;62400.31;5008800;28;20041;-56
2024/03/08 02:56:21;;;;;;;5.05;2.22;;;;;;;-140.81;100.00;62400.31;5058010;28;20087;-49
2024/03/08 02:58:48;;;;;;;7.00;2.78;;;;;;;-140.81;100.00;62400.31;5026761;28;20042;-49
2024/03/08 03:01:15;;;;;;;5.25;2.08;;;;;;;-140.81;100.00;62400.31;5025165;28;20041;-51
2024/03/08 03:03:42;;;;;;;5.57;2.08;;;;;;;-140.81;100.00;62400.31;5025311;28;20045;-51
2024/03/08 03:06:08;;;;;;;4.53;2.35;;;;;;;-140.81;100.00;62400.31;5024613;28;20120;-55
2024/03/08 03:08:34;;;;;;;3.67;2.35;;;;;;;-140.81;100.00;62400.31;5058022;28;20129;-55
2024/03/08 03:11:00;;;;;;;7.57;3.10;;;;;;;-140.81;100.00;62400.31;5023972;28;20501;-52
2024/03/08 03:13:29;;;;;;;5.15;2.40;;;;;;;-140.81;100.00;62400.31;5008148;28;20072;-50
2024/03/08 03:15:57;;;;;;;7.40;2.58;;;;;;;-140.81;100.00;62400.31;5025024;28;20030;-57
2024/03/08 03:18:23;;;;;;;5.10;2.42;;;;;;;-140.81;100.00;62400.31;5006475;28;20049;-54
2024/03/08 03:20:49;;;;;;;5.13;1.95;;;;;;;-140.81;100.00;62400.31;4989809;28;20042;-53
2024/03/08 03:23:20;;;;;;;7.22;2.95;;;;;;;-140.81;100.00;62400.31;5024854;28;20424;-53
2024/03/08 03:25:46;;;;;;;4.60;2.40;;;;;;;-140.81;100.00;62400.31;5023501;28;20076;-54
2024/03/08 03:28:17;;;;;;;5.63;2.45;;;;;;;-140.81;100.00;62400.31;5024733;28;20037;-58
2024/03/08 03:30:46;;;;;;;5.47;2.22;;;;;;;-140.81;100.00;62400.31;5025506;28;20681;-51
2024/03/08 03:33:14;;;;;;;4.63;2.25;;;;;;;-140.81;100.00;62400.31;5025184;28;20038;-51
2024/03/08 03:35:41;;;;;;;4.90;2.53;;;;;;;-140.81;100.00;62400.31;5006565;28;20045;-55
2024/03/08 03:38:07;;;;;;;3.40;1.98;;;;;;;-140.81;100.00;62400.31;5023276;28;20037;-53
2024/03/08 03:40:34;;;;;;;6.95;2.75;;;;;;;-140.81;100.00;62400.31;5008263;28;20041;-51
2024/03/08 03:43:01;;;;;;;4.82;2.83;;;;;;;-140.81;100.00;62400.31;5023839;28;20041;-51
2024/03/08 03:45:27;;;;;;;5.65;2.78;;;;;;;-140.81;100.00;62400.31;5025710;28;20049;-53
2024/03/08 03:47:53;;;;;;;6.78;3.33;;;;;;;-140.81;100.00;62400.31;5025187;28;20041;-50
2024/03/08 03:50:19;;;;;;;7.40;3.40;;;;;;;-140.81;100.00;62400.31;5023507;28;20106;-48
2024/03/08 03:52:46;;;;;;;6.45;2.60;;;;;;;-140.81;100.00;62400.31;5023854;28;20041;-52
2024/03/08 03:55:13;;;;;;;6.18;2.88;;;;;;;-140.81;100.00;62400.31;5021437;28;20044;-51
2024/03/08 03:57:40;;;;;;;8.35;3.00;;;;;;;-140.81;100.00;62400.31;5024954;28;20128;-52
2024/03/08 04:00:11;;;;;;;5.55;2.88;;;;;;;-140.81;100.00;62400.31;5046496;28;20067;-52
2024/03/08 04:02:42;;;;;;;5.25;2.78;;;;;;;-140.81;100.00;62400.31;5035134;28;20148;-54
2024/03/08 04:05:09;;;;;;;5.57;2.90;;;;;;;-140.81;100.00;62400.31;4996704;28;20046;-50
2024/03/08 04:07:36;;;;;;;5.07;2.60;;;;;;;-140.81;100.00;62400.31;5017686;28;20132;-52
2024/03/08 04:10:07;;;;;;;5.75;2.45;;;;;;;-140.81;100.00;62400.31;5024085;28;20077;-53
2024/03/08 04:12:36;;;;;;;5.32;2.42;;;;;;;-140.81;100.00;62400.31;4999288;28;20041;-53
2024/03/08 04:15:03;;;;;;;5.00;2.55;;;;;;;-140.81;100.00;62400.31;5023751;28;20099;-52
2024/03/08 04:17:37;;;;;;;7.65;3.20;;;;;;;-140.81;100.00;62400.31;5007569;28;20510;-54
2024/03/08 04:20:09;;;;;;;4.45;2.25;;;;;;;-140.81;100.00;62400.31;4999241;28;20472;-55
2024/03/08 04:22:39;;;;;;;8.25;3.40;;;;;;;-140.81;100.00;62400.31;5002292;28;20049;-54
2024/03/08 04:25:06;;;;;;;6.07;3.00;;;;;;;-140.81;100.00;62400.31;5024668;28;20505;-53
2024/03/08 04:27:35;;;;;;;10.32;3.65;;;;;;;-140.81;100.00;62400.31;5024864;28;20044;-55
2024/03/08 04:30:02;;;;;;;8.10;3.40;;;;;;;-140.81;100.00;62400.31;5025562;28;20041;-53
2024/03/08 04:32:32;;;;;;;6.20;3.10;;;;;;;-140.81;100.00;62400.31;5040199;28;20045;-55
2024/03/08 04:34:58;;;;;;;7.97;3.58;;;;;;;-140.81;100.00;62400.31;5040258;28;20091;-55
2024/03/08 04:37:24;;;;;;;9.88;3.78;;;;;;;-140.81;100.00;62400.31;5024117;28;20059;-53
2024/03/08 04:39:50;;;;;;;8.65;3.75;;;;;;;-140.81;100.00;62400.31;5024015;28;20060;-51
2024/03/08 04:42:17;;;;;;;7.18;3.30;;;;;;;-140.81;100.00;62400.31;5024230;28;20037;-53
2024/03/08 04:44:44;;;;;;;7.60;3.15;;;;;;;-140.81;100.00;62400.31;5023510;28;20099;-56
2024/03/08 04:47:10;;;;;;;6.57;3.03;;;;;;;-140.81;100.00;62400.31;5025367;28;20040;-54
2024/03/08 04:49:36;;;;;;;9.32;3.83;;;;;;;-140.81;100.00;62400.31;5025368;28;20799;-54
2024/03/08 04:52:03;;;;;;;6.88;3.17;;;;;;;-140.81;100.00;62400.31;5024683;28;20056;-56
2024/03/08 04:54:30;;;;;;;9.43;3.58;;;;;;;-140.81;100.00;62400.31;5025239;28;20037;-53
2024/03/08 04:56:55;;;;;;;11.00;3.50;;;;;;;-140.81;100.00;62400.31;5061056;28;20114;-54
2024/03/08 04:59:21;;;;;;;7.47;3.58;;;;;;;-140.81;100.00;62400.31;5027114;28;20743;-55
2024/03/08 05:01:47;;;;;;;8.15;3.50;;;;;;;-140.81;100.00;62400.31;5029072;28;20041;-54
2024/03/08 05:04:15;;;;;;;9.90;3.53;;;;;;;-140.81;100.00;62400.31;5028008;28;20497;-55
2024/03/08 05:06:40;;;;;;;7.25;3.47;;;;;;;-140.81;100.00;62400.31;5007681;28;20034;-55
2024/03/08 05:09:16;;;;;;;9.10;3.42;;;;;;;-140.81;100.00;62400.31;5021971;28;20039;-53
2024/03/08 05:11:43;;;;;;;5.75;3.08;;;;;;;-140.81;100.00;62400.31;5028306;28;20041;-53
2024/03/08 05:14:16;;;;;;;7.15;3.13;;;;;;;-140.81;100.00;62400.31;5060836;28;20052;-52
2024/03/08 05:16:48;;;;;;;9.25;3.63;;;;;;;-140.81;100.00;62400.31;5004107;28;20047;-54
2024/03/08 05:19:21;;;;;;;11.32;4.15;;;;;;;-140.81;100.00;62400.31;5025279;28;20053;-55
2024/03/08 05:21:48;;;;;;;7.03;3.13;;;;;;;-140.81;100.00;62400.31;5027116;28;20033;-53
2024/03/08 05:24:15;;;;;;;8.93;3.10;;;;;;;-140.81;100.00;62400.31;5027459;28;20069;-49
2024/03/08 05:26:41;;;;;;;6.95;3.38;;;;;;;-140.81;100.00;62400.31;5027736;28;20536;-50
2024/03/08 05:29:10;;;;;;;7.05;3.28;;;;;;;-140.81;100.00;62400.31;5024548;28;20045;-56
2024/03/08 05:31:47;;;;;;;7.88;2.80;;;;;;;-140.81;100.00;62400.31;5028118;28;20037;-52
2024/03/08 05:34:14;;;;;;;6.57;2.80;;;;;;;-140.81;100.00;62400.31;5026103;28;20464;-54
2024/03/08 05:36:43;;;;;;;6.47;3.55;;;;;;;-140.81;100.00;62400.31;5027941;28;20399;-55
2024/03/08 05:39:11;;;;;;;6.90;3.05;;;;;;;-140.81;100.00;62400.31;5026892;28;20784;-54
2024/03/08 05:41:39;;;;;;;11.75;3.40;;;;;;;-140.81;100.00;62400.31;5028293;28;20041;-54
2024/03/08 05:44:05;;;;;;;6.00;3.22;;;;;;;-140.81;100.00;62400.31;5015327;28;20469;-51
2024/03/08 05:46:30;;;;;;;6.85;3.40;;;;;;;-140.81;100.00;62400.31;5010129;28;20042;-50
2024/03/08 05:48:58;;;;;;;8.05;3.33;;;;;;;-140.81;100.00;62400.31;5018640;28;20236;-55
2024/03/08 05:51:27;;;;;;;6.00;3.00;;;;;;;-140.81;100.00;62400.31;5059572;28;20042;-57
2024/03/08 05:53:56;;;;;;;9.27;3.03;;;;;;;-140.81;100.00;62400.31;5010358;28;20140;-54
2024/03/08 05:56:25;;;;;;;6.38;2.95;;;;;;;-140.81;100.00;62400.31;5027228;28;20076;-54
2024/03/08 05:58:50;;;;;;;7.50;3.70;;;;;;;-140.81;100.00;62400.31;5027592;28;20033;-51
2024/03/08 06:01:17;;;;;;;6.63;3.40;;;;;;;-140.81;100.00;62400.31;5043403;28;20116;-52
2024/03/08 06:03:47;;;;;;;8.15;3.45;;;;;;;-140.81;100.00;62400.31;5042398;28;20075;-53
2024/03/08 06:06:13;;;;;;;5.63;3.08;;;;;;;-140.81;100.00;62400.31;5025803;28;20077;-49
2024/03/08 06:08:42;;;;;;;7.53;3.55;;;;;;;-140.81;100.00;62400.31;5041611;28;20045;-57
2024/03/08 06:11:09;;;;;;;6.93;2.87;;;;;;;-140.81;100.00;62400.31;5059481;28;20039;-56
2024/03/08 06:13:35;;;;;;;6.72;3.20;;;;;;;-140.81;100.00;62400.31;5026399;28;20362;-56
2024/03/08 06:16:04;;;;;;;7.97;3.35;;;;;;;-140.81;100.00;62400.31;5058833;28;20061;-55
2024/03/08 06:18:31;;;;;;;13.13;3.42;;;;;;;-140.81;100.00;62400.31;5026756;28;20544;-54
2024/03/08 06:20:57;;;;;;;7.13;3.15;;;;;;;-140.81;100.00;62400.31;5026311;28;20041;-53
2024/03/08 06:23:23;;;;;;;9.95;3.25;;;;;;;-140.81;100.00;62400.31;5042299;28;20053;-55
2024/03/08 06:25:49;;;;;;;6.38;3.00;;;;;;;-140.81;100.00;62400.31;5027086;28;20119;-54
2024/03/08 06:28:15;;;;;;;7.93;3.28;;;;;;;-140.81;100.00;62400.31;5027417;28;20742;-54
2024/03/08 06:30:42;;;;;;;4.40;1.63;;;;;;;-140.81;100.00;62400.31;5024567;28;20218;-49
2024/03/08 06:33:07;;;;;;;6.53;2.42;;;;;;;-140.81;100.00;62400.31;5025898;28;20038;-54
2024/03/08 06:35:34;;;;;;;6.32;2.63;;;;;;;-140.81;100.00;62400.31;5025276;28;20044;-54
2024/03/08 06:38:00;;;;;;;6.25;3.08;;;;;;;-140.81;100.00;62400.31;5026083;28;20485;-52
2024/03/08 06:40:26;;;;;;;6.28;3.30;;;;;;;-140.81;100.00;62400.31;5024880;28;20049;-56
2024/03/08 06:42:52;;;;;;;5.35;2.88;;;;;;;-140.81;100.00;62400.31;5023404;28;20042;-54
2024/03/08 06:45:20;;;;;;;8.10;3.05;;;;;;;-140.81;100.00;62400.31;5027387;28;20045;-52
2024/03/08 06:47:47;;;;;;;8.48;3.00;;;;;;;-140.81;100.00;62400.31;5026642;28;20042;-51
2024/03/08 06:50:15;;;;;;;4.78;2.60;;;;;;;-140.81;100.00;62400.31;5022725;28;20056;-51
2024/03/08 06:52:46;;;;;;;6.90;3.20;;;;;;;-140.81;100.00;62400.31;5025042;28;20041;-55
2024/03/08 06:55:12;;;;;;;7.68;3.13;;;;;;;-140.81;100.00;62400.31;5024221;28;20132;-56
2024/03/08 06:57:41;;;;;;;6.88;3.47;;;;;;;-140.81;100.00;62400.31;5058355;28;20034;-52
2024/03/08 07:00:13;;;;;;;6.85;3.55;;;;;;;-140.81;100.00;62400.31;5041246;28;20041;-53
2024/03/08 07:02:45;;;;;;;7.40;2.97;;;;;;;-140.81;100.00;62400.31;5026295;28;20512;-53
2024/03/08 07:05:11;;;;;;;7.53;2.97;;;;;;;-140.81;100.00;62400.31;5014469;28;20042;-56
2024/03/08 07:07:37;;;;;;;5.20;2.80;;;;;;;-140.81;100.00;62400.31;5022033;28;20077;-55
2024/03/08 07:10:04;;;;;;;9.00;3.63;;;;;;;-140.81;100.00;62400.31;5012789;28;20048;-55
2024/03/08 07:12:30;;;;;;;8.50;3.38;;;;;;;-140.81;100.00;62400.31;5025138;28;20132;-53
2024/03/08 07:14:56;;;;;;;11.07;4.07;;;;;;;-140.81;100.00;62400.31;5026709;28;20101;-53
2024/03/08 07:17:22;;;;;;;5.25;2.58;;;;;;;-140.81;100.00;62400.31;5058408;28;20065;-54
2024/03/08 07:19:49;;;;;;;6.80;3.33;;;;;;;-140.81;100.00;62400.31;5007917;28;20787;-52
2024/03/08 07:22:14;;;;;;;8.45;3.28;;;;;;;-140.81;100.00;62400.31;5026455;28;20110;-54
2024/03/08 07:27:20;;;;;;;7.70;3.88;;;;;;;-140.81;100.00;62400.31;5026181;28;20722;-54
2024/03/08 07:29:46;;;;;;;5.95;3.30;;;;;;;-140.81;100.00;62400.31;5007905;28;20429;-54
2024/03/08 07:32:18;;;;;;;7.85;3.60;;;;;;;-140.81;100.00;62400.31;5024312;28;20133;-55
2024/03/08 07:34:43;;;;;;;8.93;3.72;;;;;;;-140.81;100.00;62400.31;5039186;28;20092;-54
2024/03/08 07:37:13;;;;;;;8.75;3.72;;;;;;;-140.81;100.00;62400.31;5025968;28;20037;-53
2024/03/08 07:39:39;;;;;;;;;;;;;;;-140.81;100.00;62400.31;5025019;28;20509;-53
2024/03/08 07:42:05;;;;;;;7.30;3.45;;;;;;;-140.81;100.00;62400.31;5023972;28;19916;-55
2024/03/08 07:44:32;;;;;;;6.82;3.80;;;;;;;-140.81;100.00;62400.31;5025220;28;20042;-56
2024/03/08 07:46:58;;;;;;;6.90;3.92;;;;;;;-140.81;100.00;62400.31;5025504;28;20039;-51
2024/03/08 07:49:24;;;;;;;7.65;3.83;;;;;;;-140.81;100.00;62400.31;5024579;28;20065;-59
2024/03/08 07:51:51;;;;;;;6.60;3.15;;;;;;;-140.81;100.00;62400.31;5023808;28;20073;-54
2024/03/08 07:54:17;;;;;;;6.95;3.10;;;;;;;-140.81;100.00;62400.31;5024971;28;20041;-51
2024/03/08 07:56:43;;;;;;;6.78;3.30;;;;;;;-140.81;100.00;62400.31;5024773;28;20047;-52
2024/03/08 07:59:11;;;;;;;9.65;3.50;;;;;;;-140.81;100.00;62400.31;5024120;28;20045;-54
2024/03/08 08:01:38;;;;;;;7.70;3.30;;;;;;;-140.81;100.00;62400.31;5036735;28;20049;-54
2024/03/08 08:04:04;;;;;;;7.60;3.83;;;;;;;-140.81;100.00;62400.31;5009517;28;20045;-57
2024/03/08 08:06:33;;;;;;;11.48;4.25;;;;;;;-140.81;100.00;62400.31;5025234;28;20042;-54
2024/03/08 08:09:00;;;;;;;8.60;3.70;;;;;;;-140.81;100.00;62400.31;5025603;28;20073;-51
2024/03/08 08:11:30;;;;;;;6.63;4.05;;;;;;;-140.81;100.00;62400.31;5024564;28;20037;-57
2024/03/08 08:13:56;;;;;;;9.73;3.58;;;;;;;-140.81;100.00;62400.31;5025665;28;20045;-56
2024/03/08 08:16:27;;;;;;;8.18;3.47;;;;;;;-140.81;100.00;62400.31;5023931;28;20046;-56
2024/03/08 08:18:54;;;;;;;8.07;3.63;;;;;;;-140.81;100.00;62400.31;5026091;28;20061;-59
2024/03/08 08:21:22;;;;;;;7.22;3.22;;;;;;;-140.81;100.00;62400.31;5023561;28;20846;-52
2024/03/08 08:23:48;;;;;;;5.65;3.28;;;;;;;-140.81;100.00;62400.31;5023658;28;20037;-56
2024/03/08 08:26:13;;;;;;;7.80;3.70;;;;;;;-140.81;100.00;62400.31;5040422;28;20099;-59
2024/03/08 08:28:46;;;;;;;9.25;3.80;;;;;;;-140.81;100.00;62400.31;5024462;28;20045;-53
2024/03/08 08:31:12;;;;;;;6.32;3.67;;;;;;;-140.81;100.00;62400.31;5059226;28;20056;-55
2024/03/08 08:33:40;;;;;;;8.75;3.92;;;;;;;-140.81;100.00;62400.31;5028760;28;20095;-55
2024/03/08 08:36:06;;;;;;;8.65;3.47;;;;;;;-140.81;100.00;62400.31;5010970;28;20555;-56
2024/03/08 08:38:33;;;;;;;7.68;3.80;;;;;;;-140.81;100.00;62400.31;5027537;28;20049;-58
2024/03/08 08:40:59;;;;;;;7.72;3.90;;;;;;;-140.81;100.00;62400.31;5011727;28;20037;-56
2024/03/08 08:43:25;;;;;;;7.40;3.28;;;;;;;-140.81;100.00;62400.31;5027063;28;20041;-56
2024/03/08 08:45:54;;;;;;;10.00;3.90;;;;;;;-140.81;100.00;62400.31;5026916;28;20037;-55
2024/03/08 08:48:20;;;;;;;7.18;3.50;;;;;;;-140.81;100.00;62400.31;5027599;28;20041;-54
2024/03/08 08:50:46;;;;;;;7.35;3.33;;;;;;;-140.81;100.00;62400.31;5028183;28;20049;-54
2024/03/08 08:53:14;;;;;;;10.60;3.95;;;;;;;-140.81;100.00;62400.31;5028119;28;20180;-54
2024/03/08 08:55:42;;;;;;;7.53;3.63;;;;;;;-140.81;100.00;62400.31;5029222;28;20045;-53
2024/03/08 08:58:08;;;;;;;10.88;4.13;;;;;;;-140.81;100.00;62400.31;5028765;28;20041;-54
2024/03/08 09:00:34;;;;;;;7.63;3.78;;;;;;;-140.81;100.00;62400.31;5026758;28;20509;-56
2024/03/08 09:03:02;;;;;;;6.35;3.28;;;;;;;-140.81;100.00;62400.31;5043476;28;20076;-57
2024/03/08 09:05:28;;;;;;;12.23;3.92;;;;;;;-140.81;100.00;62400.31;5027550;28;20049;-56
2024/03/08 09:07:55;;;;;;;7.10;3.72;;;;;;;-140.81;100.00;62400.31;5010459;28;20045;-58
2024/03/08 09:10:22;;;;;;;5.80;3.20;;;;;;;-140.81;100.00;62400.31;5026692;28;20051;-56
2024/03/08 09:12:50;;;;;;;5.05;3.00;;;;;;;-140.81;100.00;62400.31;5028469;28;20041;-55
2024/03/08 09:15:17;;;;;;;7.65;3.47;;;;;;;-140.81;100.00;62400.31;5026340;28;20049;-54
2024/03/08 09:17:44;;;;;;;10.55;3.60;;;;;;;-140.81;100.00;62400.31;5042371;28;20045;-53
2024/03/08 09:20:14;;;;;;;8.23;3.83;;;;;;;-140.81;100.00;62400.31;5028317;28;20376;-54
2024/03/08 09:22:43;;;;;;;7.32;3.75;;;;;;;-140.81;100.00;62400.31;5026681;28;20045;-56
2024/03/08 09:25:09;;;;;;;8.02;3.45;;;;;;;-140.81;100.00;62400.31;5043335;28;20576;-55
2024/03/08 09:27:35;;;;;;;6.57;3.55;;;;;;;-140.81;100.00;62400.31;5026020;28;20084;-52
2024/03/08 09:30:02;;;;;;;7.57;3.53;;;;;;;-140.81;100.00;62400.31;5027803;28;20044;-54
2024/03/08 09:32:30;;;;;;;6.47;3.50;;;;;;;-140.81;100.00;62400.31;5026501;28;20574;-52
2024/03/08 09:34:56;;;;;;;5.72;3.50;;;;;;;-140.81;100.00;62400.31;4985439;28;20289;-54
2024/03/08 09:37:23;;;;;;;6.63;3.38;;;;;;;-140.81;100.00;62400.31;5026064;28;20055;-55
2024/03/08 09:39:49;;;;;;;11.00;3.80;;;;;;;-140.81;100.00;62400.31;5027661;28;20041;-56
2024/03/08 09:42:16;;;;;;;7.55;3.97;;;;;;;-140.81;100.00;62400.31;5027160;28;20115;-60
2024/03/08 09:44:48;;;;;;;8.52;3.58;;;;;;;-140.81;100.00;62400.31;5027059;28;20053;-60
2024/03/08 09:47:14;;;;;;;7.90;4.25;;;;;;;-140.81;100.00;62400.31;5007290;28;20041;-60
2024/03/08 09:49:41;;;;;;;8.88;3.80;;;;;;;-140.81;100.00;62400.31;5023852;28;20045;-61
2024/03/08 09:52:07;;;;;;;6.82;3.95;;;;;;;-140.81;100.00;62400.31;5027479;28;20037;-58
2024/03/08 09:54:34;;;;;;;8.13;4.57;;;;;;;-140.81;100.00;62400.31;4985378;28;20046;-55
2024/03/08 09:57:03;;;;;;;7.20;3.33;;;;;;;-140.81;100.00;62400.31;5021612;28;20030;-58
2024/03/08 10:02:04;;;;;;;6.60;3.90;;;;;;;-140.81;100.00;62400.31;5021400;28;20126;-58
2024/03/08 10:04:30;;;;;;;7.07;3.88;;;;;;;-140.81;100.00;62400.31;5024910;28;20087;-60
2024/03/08 10:07:01;;;;;;;9.90;4.72;;;;;;;-140.81;100.00;62400.31;5021364;28;20033;-56
2024/03/08 10:09:27;;;;;;;7.07;3.97;;;;;;;-140.81;100.00;62400.31;5012841;28;20509;-55
2024/03/08 10:11:57;;;;;;;6.28;3.45;;;;;;;-140.81;100.00;62400.31;5022565;28;20054;-54
2024/03/08 10:14:26;;;;;;;6.03;3.83;;;;;;;-140.81;100.00;62400.31;5047633;28;21118;-53
2024/03/08 10:16:53;;;;;;;10.98;3.83;;;;;;;-140.81;100.00;62400.31;5025342;28;20041;-55
2024/03/08 10:19:20;;;;;;;7.15;3.95;;;;;;;-140.81;100.00;62400.31;5038763;28;20067;-58
2024/03/08 10:21:50;;;;;;;8.43;3.50;;;;;;;-140.81;100.00;62400.31;5024183;28;20552;-58
2024/03/08 10:24:15;;;;;;;8.35;4.13;;;;;;;-140.81;100.00;62400.31;5031693;28;20414;-57
2024/03/08 10:26:44;;;;;;;8.35;4.15;;;;;;;-140.81;100.00;62400.31;5026379;28;20120;-55
2024/03/08 10:29:09;;;;;;;7.55;3.92;;;;;;;-140.81;100.00;62400.31;5024776;28;20049;-55
2024/03/08 10:31:36;;;;;;;7.72;4.22;;;;;;;-140.81;100.00;62400.31;5026531;28;20067;-58
2024/03/08 10:34:02;;;;;;;9.70;3.70;;;;;;;-140.81;100.00;62400.31;5024223;28;20079;-60
2024/03/08 10:36:28;;;;;;;8.43;3.65;;;;;;;-140.81;100.00;62400.31;5024281;28;20425;-56
2024/03/08 10:38:56;;;;;;;6.88;3.75;;;;;;;-140.81;100.00;62400.31;5023181;28;20033;-58
2024/03/08 10:41:25;;;;;;;11.43;4.20;;;;;;;-140.81;100.00;62400.31;4990274;28;20041;-56
2024/03/08 10:44:16;;;;;;;9.70;4.78;;;;;;;-140.81;100.00;62400.31;5008869;28;20037;-58
2024/03/08 10:47:03;;;;;;;8.25;4.55;;;;;;;-140.81;100.00;62400.31;5009383;28;20041;-57
2024/03/08 10:49:45;;;;;;;13.02;4.22;;;;;;;-140.81;100.00;62400.31;5041161;28;20056;-57
2024/03/08 10:52:13;;;;;;;13.02;5.40;;;;;;;-140.81;100.00;62400.31;5025526;28;20041;-59
2024/03/08 10:54:39;;;;;;;7.63;4.30;;;;;;;-140.81;100.00;62400.31;5025513;28;20037;-59
2024/03/08 10:57:05;;;;;;;7.55;4.03;;;;;;;-140.81;100.00;62400.31;5025400;28;20044;-57
2024/03/08 10:59:33;;;;;;;8.90;4.30;;;;;;;-140.81;100.00;62400.31;5025624;28;20425;-60
2024/03/08 11:02:00;;;;;;;7.18;4.05;;;;;;;-140.81;100.00;62400.31;5024460;28;20092;-51
2024/03/08 11:04:28;;;;;;;9.40;4.18;;;;;;;-140.81;100.00;62400.31;5026442;28;20094;-59
2024/03/08 11:07:03;;;;;;;8.77;4.13;;;;;;;-140.81;100.00;62400.31;5009295;28;20049;-57
2024/03/08 11:09:33;;;;;;;7.13;4.13;;;;;;;-140.81;100.00;62400.31;5024750;28;20041;-57
2024/03/08 11:12:20;;;;;;;7.70;4.05;;;;;;;-140.81;100.00;62400.31;5025214;28;20045;-58
2024/03/08 11:14:50;;;;;;;8.70;3.97;;;;;;;-140.81;100.00;62400.31;5024753;28;20030;-53